Time;durP1;ratioP1;P1;durP2;ratioP2;P2;SDS_P1;SDS_P2;PMS_P1;PMS_P2;Temp;Humidity;BMP_temperature;BMP_pressure;BME280_temperature;BME280_humidity;BME280_pressure;Samples;Min_cycle;Max_cycle;Signal;HPM_P1;HPM_P2
2024/02/05 00:02:24;;;;;;;3.25;2.00;;;;;;;;;;5046728;28;20064;-88
2024/02/05 00:04:50;;;;;;;4.22;1.73;;;;;;;;;;5065480;28;20040;-86
2024/02/05 00:07:17;;;;;;;3.78;2.00;;;;;;;;;;5047550;28;20025;-86
2024/02/05 00:09:43;;;;;;;4.35;2.30;;;;;;;;;;5047717;28;20041;-87
2024/02/05 00:12:10;;;;;;;5.05;2.20;;;;;;;;;;5047674;28;20033;-86
2024/02/05 00:14:37;;;;;;;7.63;2.10;;;;;;;;;;5061780;28;20021;-86
2024/02/05 00:17:06;;;;;;;5.30;2.25;;;;;;;;;;5047600;28;20029;-88
2024/02/05 00:19:32;;;;;;;3.58;2.00;;;8.60;99.90;;;;;;5032880;28;20037;-85
2024/02/05 00:21:58;;;;;;;5.15;2.70;;;;;;;;;;5065508;28;20025;-86
2024/02/05 00:24:24;;;;;;;4.28;2.42;;;;;;;;;;5031732;28;20029;-85
2024/02/05 00:26:53;;;;;;;5.68;2.55;;;;;;;;;;5066083;28;20500;-86
2024/02/05 00:29:24;;;;;;;4.07;2.30;;;8.60;99.90;;;;;;5063151;28;20021;-86
2024/02/05 00:31:51;;;;;;;4.15;2.45;;;;;;;;;;5040613;28;20029;-86
2024/02/05 00:34:19;;;;;;;3.40;2.05;;;;;;;;;;5023131;28;20048;-84
2024/02/05 00:36:53;;;;;;;4.32;1.90;;;8.50;99.90;;;;;;5046034;28;20021;-85
2024/02/05 00:39:48;;;;;;;6.03;2.60;;;8.50;99.90;;;;;;5048905;28;20021;-87
2024/02/05 00:42:19;;;;;;;7.65;2.30;;;8.40;99.90;;;;;;5053292;28;20030;-85
2024/02/05 00:44:45;;;;;;;6.80;3.15;;;8.40;99.90;;;;;;5042776;28;20033;-88
2024/02/05 00:47:13;;;;;;;6.28;2.72;;;9.10;99.90;;;;;;5067532;28;20079;-87
2024/02/05 00:49:47;;;;;;;5.05;2.47;;;8.50;99.90;;;;;;5062714;28;20036;-86
2024/02/05 00:52:14;;;;;;;12.88;2.85;;;8.50;99.90;;;;;;5045493;28;20033;-84
2024/02/05 00:54:42;;;;;;;6.35;2.40;;;8.50;99.90;;;;;;5046353;28;20040;-87
2024/02/05 00:57:11;;;;;;;6.43;2.55;;;9.10;99.90;;;;;;5041744;28;20022;-85
2024/02/05 00:59:46;;;;;;;5.13;2.47;;;8.40;99.90;;;;;;5043380;28;20017;-87
2024/02/05 01:02:18;;;;;;;8.10;2.55;;;8.50;99.90;;;;;;5063370;28;20021;-86
2024/02/05 01:04:50;;;;;;;6.72;2.38;;;8.50;99.90;;;;;;5056674;28;20041;-87
2024/02/05 01:07:31;;;;;;;8.63;2.30;;;8.90;99.90;;;;;;5050298;28;20029;-86
2024/02/05 01:10:06;;;;;;;6.25;2.53;;;7.50;99.90;;;;;;5037506;28;20123;-86
2024/02/05 01:12:53;;;;;;;8.77;2.55;;;8.10;99.90;;;;;;5035842;28;20474;-89
2024/02/05 01:16:04;;;;;;;;;;;;;;;;;;;;;
2024/02/05 01:18:36;;;;;;;4.60;2.08;;;8.70;99.90;;;;;;5025984;28;20129;-87
2024/02/05 01:21:08;;;;;;;6.95;2.88;;;10.70;99.90;;;;;;5027612;28;20018;-86
2024/02/05 01:23:34;;;;;;;9.35;3.03;;;7.70;99.90;;;;;;5038032;28;20071;-87
2024/02/05 01:26:00;;;;;;;5.00;2.60;;;8.50;99.90;;;;;;5047760;28;20116;-84
2024/02/05 01:28:26;;;;;;;4.60;2.35;;;8.60;99.90;;;;;;5046123;28;20057;-85
2024/02/05 01:30:51;;;;;;;7.60;2.90;;;8.60;99.90;;;;;;5044087;28;20029;-87
2024/02/05 01:33:17;;;;;;;7.25;2.55;;;8.60;99.90;;;;;;5038229;28;20069;-85
2024/02/05 01:35:43;;;;;;;3.63;2.20;;;9.40;99.90;;;;;;5044032;28;20463;-85
2024/02/05 01:38:08;;;;;;;7.18;2.55;;;9.20;99.90;;;;;;5033744;28;20037;-86
2024/02/05 01:40:36;;;;;;;5.63;2.50;;;9.00;99.90;;;;;;5045814;28;20028;-81
2024/02/05 01:43:02;;;;;;;5.97;2.65;;;8.40;99.90;;;;;;5028770;28;20092;-84
2024/02/05 01:45:28;;;;;;;6.60;2.78;;;8.40;99.90;;;;;;5045375;28;20021;-86
2024/02/05 01:47:54;;;;;;;10.10;2.80;;;8.30;99.90;;;;;;5045213;28;20025;-85
2024/02/05 01:50:20;;;;;;;6.85;2.63;;;10.30;99.90;;;;;;5044778;28;20445;-84
2024/02/05 01:52:50;;;;;;;6.25;2.55;;;8.40;99.90;;;;;;5044549;28;20112;-85
2024/02/05 01:55:23;;;;;;;7.05;2.90;;;8.40;99.90;;;;;;5047071;28;20018;-87
2024/02/05 01:57:50;;;;;;;6.97;3.03;;;8.40;99.90;;;;;;5027507;28;20017;-81
2024/02/05 02:00:16;;;;;;;6.20;2.80;;;8.40;99.90;;;;;;5031377;28;20017;-85
2024/02/05 02:02:42;;;;;;;4.90;2.30;;;8.50;99.90;;;;;;5034557;28;20033;-87
2024/02/05 02:05:09;;;;;;;3.88;2.47;;;9.50;99.90;;;;;;5043988;28;20108;-87
2024/02/05 02:07:35;;;;;;;7.43;2.85;;;8.30;99.90;;;;;;5044992;28;20036;-87
2024/02/05 02:10:01;;;;;;;4.25;2.40;;;9.10;99.90;;;;;;5043424;28;20499;-85
2024/02/05 02:12:26;;;;;;;4.55;2.70;;;8.30;99.90;;;;;;5042398;28;20029;-86
2024/02/05 02:14:52;;;;;;;5.20;2.33;;;7.40;99.90;;;;;;5042507;28;20095;-85
2024/02/05 02:17:20;;;;;;;9.05;3.30;;;8.30;99.90;;;;;;5052205;28;20029;-87
2024/02/05 02:19:48;;;;;;;5.50;2.15;;;8.30;99.90;;;;;;5047192;28;20021;-85
2024/02/05 02:22:37;;;;;;;4.30;2.10;;;8.30;99.90;;;;;;5046496;28;20476;-85
2024/02/05 02:25:06;;;;;;;3.97;2.20;;;8.30;99.90;;;;;;5064050;28;20029;-85
2024/02/05 02:27:32;;;;;;;5.93;2.22;;;8.40;99.90;;;;;;5045038;28;20116;-86
2024/02/05 02:29:59;;;;;;;3.53;2.30;;;8.30;99.90;;;;;;5046477;28;20021;-86
2024/02/05 02:32:32;;;;;;;5.93;2.50;;;8.20;99.90;;;;;;5047269;28;20044;-85
2024/02/05 02:35:04;;;;;;;5.53;2.25;;;8.10;99.90;;;;;;5046814;28;20025;-86
2024/02/05 02:37:35;;;;;;;9.65;2.60;;;8.20;99.90;;;;;;5045189;28;20025;-87
2024/02/05 02:40:13;;;;;;;;;;;9.00;99.90;;;;;;5047632;28;20025;-86
2024/02/05 02:42:40;;;;;;;6.07;1.98;;;8.30;99.90;;;;;;5064671;28;19911;-87
2024/02/05 02:45:10;;;;;;;3.17;2.20;;;9.00;99.90;;;;;;5046411;28;20370;-87
2024/02/05 02:47:36;;;;;;;6.05;2.15;;;6.60;99.90;;;;;;5063954;28;20037;-87
2024/02/05 02:50:02;;;;;;;4.65;2.05;;;8.50;99.90;;;;;;5063522;28;20171;-86
2024/02/05 02:52:28;;;;;;;4.38;1.90;;;8.20;99.90;;;;;;5045898;28;20033;-88
2024/02/05 02:54:54;;;;;;;3.97;1.98;;;9.00;99.90;;;;;;5045545;28;20021;-86
2024/02/05 02:57:20;;;;;;;3.88;2.00;;;8.20;99.90;;;;;;5064032;28;20029;-84
2024/02/05 02:59:46;;;;;;;3.20;1.98;;;8.20;99.90;;;;;;5055163;28;20036;-86
2024/02/05 03:02:12;;;;;;;4.55;2.25;;;8.20;99.90;;;;;;5044426;28;20033;-87
2024/02/05 03:04:37;;;;;;;3.88;1.92;;;8.50;99.90;;;;;;5064923;28;20032;-86
2024/02/05 03:07:03;;;;;;;3.88;1.90;;;8.20;99.90;;;;;;5045586;28;20025;-88
2024/02/05 03:09:29;;;;;;;5.95;2.15;;;8.20;99.90;;;;;;5046835;28;20025;-85
2024/02/05 03:11:55;;;;;;;4.93;2.25;;;8.20;99.90;;;;;;5064166;28;20028;-88
2024/02/05 03:14:25;;;;;;;4.22;2.20;;;8.30;99.90;;;;;;5044939;28;20355;-89
2024/02/05 03:16:50;;;;;;;4.03;1.90;;;8.10;99.90;;;;;;5046975;28;20029;-87
2024/02/05 03:19:16;;;;;;;4.95;1.95;;;8.20;99.90;;;;;;5065633;28;20025;-87
2024/02/05 03:21:42;;;;;;;3.50;2.13;;;8.20;99.90;;;;;;5047223;28;20025;-87
2024/02/05 03:24:07;;;;;;;5.15;2.00;;;8.30;99.90;;;;;;5047059;28;20070;-88
2024/02/05 03:26:33;;;;;;;3.88;2.22;;;8.40;99.90;;;;;;5066063;28;20037;-87
2024/02/05 03:28:59;;;;;;;4.85;2.50;;;9.20;99.90;;;;;;5045533;28;20033;-88
2024/02/05 03:31:26;;;;;;;5.10;2.60;;;8.40;99.90;;;;;;5045326;28;20028;-87
2024/02/05 03:33:51;;;;;;;4.55;1.88;;;8.30;99.90;;;;;;5046740;28;20025;-86
2024/02/05 03:36:17;;;;;;;5.10;1.88;;;8.30;99.90;;;;;;5046548;28;20370;-87
2024/02/05 03:38:43;;;;;;;4.60;1.90;;;8.80;99.90;;;;;;5045877;28;20041;-88
2024/02/05 03:41:09;;;;;;;3.70;2.25;;;9.10;99.90;;;;;;5045547;28;20028;-85
2024/02/05 03:43:35;;;;;;;5.28;2.22;;;8.60;99.90;;;;;;5041543;28;20028;-88
2024/02/05 03:46:01;;;;;;;5.60;1.92;;;8.50;99.90;;;;;;5045721;28;20051;-86
2024/02/05 03:48:26;;;;;;;4.63;2.13;;;9.90;99.90;;;;;;5064280;28;20048;-85
2024/02/05 03:50:52;;;;;;;4.97;2.20;;;9.00;99.90;;;;;;5046196;28;20076;-87
2024/02/05 03:53:18;;;;;;;4.50;2.45;;;9.20;99.90;;;;;;5047551;28;20044;-87
2024/02/05 03:55:44;;;;;;;5.28;2.50;;;8.20;99.90;;;;;;5046377;28;20092;-85
2024/02/05 03:58:10;;;;;;;4.82;2.17;;;8.80;99.90;;;;;;5045901;28;20025;-88
2024/02/05 04:00:35;;;;;;;3.45;2.13;;;8.90;99.90;;;;;;5053411;28;20032;-89
2024/02/05 04:03:01;;;;;;;3.58;1.95;;;8.40;99.90;;;;;;5046635;28;20246;-85
2024/02/05 04:05:28;;;;;;;5.85;2.67;;;8.30;99.90;;;;;;5046807;28;20082;-89
2024/02/05 04:07:54;;;;;;;4.32;2.10;;;8.40;99.90;;;;;;5064473;28;20033;-87
2024/02/05 04:10:20;;;;;;;3.15;1.90;;;9.30;99.90;;;;;;5063346;28;20045;-88
2024/02/05 04:12:46;;;;;;;5.90;3.00;;;8.20;99.90;;;;;;5046970;28;20028;-86
2024/02/05 04:15:12;;;;;;;4.68;2.35;;;9.70;99.90;;;;;;5045537;28;20645;-85
2024/02/05 04:17:38;;;;;;;6.43;2.53;;;8.20;99.90;;;;;;5064509;28;20478;-86
2024/02/05 04:20:05;;;;;;;6.30;2.35;;;8.30;99.90;;;;;;5055661;28;20026;-86
2024/02/05 04:22:30;;;;;;;4.32;2.70;;;8.20;99.90;;;;;;5056654;28;20029;-86
2024/02/05 04:24:56;;;;;;;4.50;2.28;;;8.20;99.90;;;;;;5046911;28;20025;-85
2024/02/05 04:27:22;;;;;;;5.55;2.65;;;8.20;99.90;;;;;;5047080;28;20029;-87
2024/02/05 04:29:47;;;;;;;7.22;3.58;;;8.20;99.90;;;;;;5048456;28;20032;-86
2024/02/05 04:32:13;;;;;;;5.78;2.67;;;7.50;99.90;;;;;;5048493;28;20021;-86
2024/02/05 04:34:39;;;;;;;4.82;2.60;;;8.40;99.90;;;;;;5048837;28;20021;-89
2024/02/05 04:37:05;;;;;;;6.55;2.90;;;8.20;99.90;;;;;;5048769;28;20036;-90
2024/02/05 04:39:30;;;;;;;6.18;2.70;;;9.40;99.90;;;;;;5065450;28;20036;-86
2024/02/05 04:41:59;;;;;;;6.18;2.63;;;8.30;99.90;;;;;;5047735;28;20060;-89
2024/02/05 04:44:25;;;;;;;6.40;2.88;;;8.30;99.90;;;;;;5047845;28;20056;-88
2024/02/05 04:46:51;;;;;;;5.65;2.85;;;8.30;99.90;;;;;;5048101;28;20033;-89
2024/02/05 04:49:18;;;;;;;7.18;2.75;;;8.40;99.90;;;;;;5023795;28;20056;-89
2024/02/05 04:51:53;;;;;;;6.70;3.20;;;8.60;99.90;;;;;;5110676;23;20056;-85
2024/02/05 04:54:22;;;;;;;5.45;2.85;;;8.30;99.90;;;;;;5075647;28;20077;-85
2024/02/05 04:56:55;;;;;;;5.63;2.70;;;8.30;99.90;;;;;;5081935;28;20029;-87
2024/02/05 04:59:56;;;;;;;4.03;2.75;;;8.30;99.90;;;;;;5078094;28;20024;-86
2024/02/05 05:02:29;;;;;;;;;;;8.40;99.90;;;;;;5066215;28;20043;-87
2024/02/05 05:05:13;;;;;;;7.28;2.83;;;8.40;99.90;;;;;;5070979;28;20004;-87
2024/02/05 05:07:42;;;;;;;5.03;2.80;;;8.50;99.90;;;;;;5051823;28;20039;-84
2024/02/05 05:10:17;;;;;;;5.57;2.50;;;8.50;99.90;;;;;;5069202;28;20036;-82
2024/02/05 05:12:51;;;;;;;5.28;2.90;;;8.50;99.90;;;;;;5077393;28;20032;-86
2024/02/05 05:16:40;;;;;;;8.45;2.85;;;8.70;99.90;;;;;;5085125;28;20437;-86
2024/02/05 05:19:34;;;;;;;7.93;2.45;;;8.80;99.90;;;;;;5067907;28;20033;-84
2024/02/05 05:22:03;;;;;;;10.20;3.42;;;8.80;99.90;;;;;;5061411;28;20029;-84
2024/02/05 05:24:34;;;;;;;;;;;8.80;99.90;;;;;;5077370;28;20048;-87
2024/02/05 05:27:25;;;;;;;9.38;3.63;;;8.80;99.90;;;;;;5076613;28;19998;-85
2024/02/05 05:29:56;;;;;;;6.28;3.50;;;8.80;99.90;;;;;;5081869;28;20029;-88
2024/02/05 05:32:35;;;;;;;7.28;3.78;;;8.80;99.90;;;;;;5079680;28;20028;-86
2024/02/05 05:35:06;;;;;;;9.77;3.00;;;8.80;99.90;;;;;;5092233;28;20496;-86
2024/02/05 05:38:40;;;;;;;8.43;3.00;;;8.80;99.90;;;;;;5080911;28;20066;-84
2024/02/05 05:41:50;;;;;;;7.43;3.38;;;8.80;99.90;;;;;;5065044;28;20017;-85
2024/02/05 05:45:12;;;;;;;7.38;3.17;;;8.70;99.90;;;;;;5078332;28;20039;-86
2024/02/05 05:47:46;;;;;;;10.05;3.95;;;8.70;99.90;;;;;;5064155;28;20062;-87
2024/02/05 05:50:12;;;;;;;9.02;3.35;;;8.60;99.90;;;;;;5081047;28;20029;-86
2024/02/05 05:52:38;;;;;;;7.22;3.05;;;8.70;99.90;;;;;;5058092;28;20086;-84
2024/02/05 05:55:04;;;;;;;6.40;3.10;;;8.60;99.90;;;;;;5072610;28;20025;-85
2024/02/05 05:57:29;;;;;;;10.18;3.63;;;8.60;99.90;;;;;;5077884;28;20024;-85
2024/02/05 05:59:55;;;;;;;8.05;3.17;;;8.70;99.90;;;;;;5077956;28;20028;-87
2024/02/05 06:02:21;;;;;;;6.72;2.95;;;8.70;99.90;;;;;;5080621;28;20118;-88
2024/02/05 06:04:47;;;;;;;7.18;3.25;;;8.70;99.90;;;;;;5081687;28;20032;-86
2024/02/05 06:07:13;;;;;;;10.95;3.45;;;8.80;99.90;;;;;;5080907;28;20021;-84
2024/02/05 06:09:38;;;;;;;8.57;3.10;;;9.60;99.90;;;;;;5075923;28;20469;-85
2024/02/05 06:12:04;;;;;;;7.57;3.70;;;9.70;99.90;;;;;;5066046;28;20044;-84
2024/02/05 06:14:30;;;;;;;8.70;3.35;;;8.60;99.90;;;;;;5078057;28;20021;-85
2024/02/05 06:16:56;;;;;;;9.70;3.78;;;8.80;99.90;;;;;;5083918;28;20031;-85
2024/02/05 06:19:22;;;;;;;9.82;3.25;;;8.60;99.90;;;;;;5062143;28;20473;-86
2024/02/05 06:21:47;;;;;;;5.88;3.33;;;8.60;99.90;;;;;;5080742;28;20058;-84
2024/02/05 06:24:14;;;;;;;12.05;2.95;;;8.70;99.90;;;;;;5075008;28;20028;-87
2024/02/05 06:26:40;;;;;;;9.73;3.50;;;9.70;99.90;;;;;;5091623;28;20021;-86
2024/02/05 06:29:06;;;;;;;7.72;3.55;;;9.10;99.90;;;;;;5082862;28;20039;-87
2024/02/05 06:31:32;;;;;;;10.05;3.65;;;8.50;99.90;;;;;;5082470;28;20032;-84
2024/02/05 06:33:57;;;;;;;10.50;3.35;;;8.40;99.90;;;;;;5078562;28;20024;-85
2024/02/05 06:36:23;;;;;;;10.82;3.53;;;8.90;99.90;;;;;;5082769;28;20024;-85
2024/02/05 06:38:49;;;;;;;14.48;4.43;;;8.70;99.90;;;;;;5078424;28;20488;-84
2024/02/05 06:41:14;;;;;;;8.48;3.33;;;8.50;99.90;;;;;;5074999;28;20109;-87
2024/02/05 06:43:40;;;;;;;12.15;3.50;;;8.50;99.90;;;;;;5076565;28;20029;-87
2024/02/05 06:46:06;;;;;;;16.42;4.32;;;8.50;99.90;;;;;;5065490;28;20063;-87
2024/02/05 06:48:34;;;;;;;11.27;3.33;;;9.40;99.90;;;;;;5085786;28;20025;-84
2024/02/05 06:51:00;;;;;;;12.50;4.07;;;9.80;99.90;;;;;;5069098;28;20029;-84
2024/02/05 06:53:26;;;;;;;13.20;3.45;;;8.70;99.90;;;;;;5067361;28;20032;-83
2024/02/05 06:55:52;;;;;;;14.98;4.30;;;8.60;99.90;;;;;;5080517;28;20074;-85
2024/02/05 06:58:19;;;;;;;10.55;3.80;;;8.50;99.90;;;;;;5073086;28;20016;-85
2024/02/05 07:00:45;;;;;;;14.23;3.53;;;8.60;99.90;;;;;;5069375;28;20112;-84
2024/02/05 07:03:10;;;;;;;12.25;3.88;;;8.50;99.90;;;;;;5072551;28;20082;-86
2024/02/05 07:05:36;;;;;;;8.77;3.53;;;8.40;99.90;;;;;;5075869;28;20036;-85
2024/02/05 07:08:02;;;;;;;8.88;3.90;;;8.50;99.90;;;;;;5072762;28;20029;-85
2024/02/05 07:10:28;;;;;;;12.65;4.93;;;8.50;99.90;;;;;;5071693;28;20042;-84
2024/02/05 07:12:54;;;;;;;7.95;3.45;;;8.50;99.90;;;;;;5078523;28;20100;-86
2024/02/05 07:15:19;;;;;;;10.25;3.63;;;8.50;99.90;;;;;;5074953;28;20064;-86
2024/02/05 07:17:45;;;;;;;11.88;3.95;;;8.40;99.90;;;;;;5058803;28;20405;-87
2024/02/05 07:20:11;;;;;;;9.32;3.88;;;9.70;99.90;;;;;;5079186;28;20473;-86
2024/02/05 07:22:37;;;;;;;12.43;3.83;;;8.50;99.90;;;;;;5076034;28;20092;-85
2024/02/05 07:25:03;;;;;;;13.45;4.05;;;8.50;99.90;;;;;;5077760;28;20120;-89
2024/02/05 07:27:29;;;;;;;7.82;3.47;;;8.50;99.90;;;;;;5080448;28;20056;-88
2024/02/05 07:29:55;;;;;;;10.88;3.50;;;;;;;;;;5071787;28;20028;-88
2024/02/05 07:32:21;;;;;;;9.93;3.85;;;8.50;99.90;;;;;;5079873;28;20028;-85
2024/02/05 07:34:47;;;;;;;7.70;4.28;;;9.60;99.90;;;;;;5077278;28;20032;-86
2024/02/05 07:37:12;;;;;;;12.63;3.67;;;8.50;99.90;;;;;;5077022;28;20032;-88
2024/02/05 07:39:38;;;;;;;11.73;4.03;;;9.50;99.90;;;;;;5067934;28;20059;-87
2024/02/05 07:42:04;;;;;;;9.23;3.63;;;8.50;99.90;;;;;;5082412;28;20058;-87
2024/02/05 07:44:30;;;;;;;13.32;3.67;;;8.50;99.90;;;;;;5073917;28;20060;-83
2024/02/05 07:46:56;;;;;;;9.68;3.63;;;8.60;99.90;;;;;;5073232;28;20177;-85
2024/02/05 07:49:22;;;;;;;16.20;4.50;;;8.90;99.90;;;;;;5076666;28;20029;-87
2024/02/05 07:51:52;;;;;;;10.88;3.83;;;8.50;99.90;;;;;;5071527;28;20043;-87
2024/02/05 07:54:19;;;;;;;13.52;4.18;;;8.70;99.90;;;;;;5071549;28;20029;-86
2024/02/05 07:56:45;;;;;;;15.73;3.88;;;8.60;99.90;;;;;;5099765;28;20025;-87
2024/02/05 07:59:14;;;;;;;11.80;3.60;;;9.40;99.90;;;;;;5085242;28;20020;-86
2024/02/05 08:01:39;;;;;;;12.73;3.88;;;8.60;99.90;;;;;;5070982;28;20097;-88
2024/02/05 08:04:05;;;;;;;13.75;3.60;;;8.70;99.90;;;;;;5083181;28;20064;-89
2024/02/05 08:06:32;;;;;;;10.55;3.58;;;8.60;99.90;;;;;;5079807;28;20035;-87
2024/02/05 08:08:59;;;;;;;12.98;3.45;;;8.60;99.90;;;;;;5078798;28;20028;-84
2024/02/05 08:11:25;;;;;;;15.70;4.50;;;8.70;99.90;;;;;;5086867;28;20454;-88
2024/02/05 08:13:51;;;;;;;10.93;3.63;;;8.80;99.90;;;;;;5065067;28;20017;-85
2024/02/05 08:16:17;;;;;;;16.35;3.63;;;8.70;99.90;;;;;;5068970;28;20171;-85
2024/02/05 08:18:43;;;;;;;9.75;3.33;;;8.70;99.90;;;;;;5078206;28;20055;-85
2024/02/05 08:21:08;;;;;;;10.82;3.22;;;8.70;99.90;;;;;;5074712;28;20021;-89
2024/02/05 08:23:38;;;;;;;9.73;3.90;;;8.70;99.90;;;;;;5077091;28;20028;-86
2024/02/05 08:26:04;;;;;;;10.68;3.53;;;8.80;99.90;;;;;;5068355;28;20028;-86
2024/02/05 08:28:30;;;;;;;11.60;3.45;;;9.90;99.90;;;;;;5075343;28;20115;-88
2024/02/05 08:30:56;;;;;;;18.13;4.00;;;9.50;99.90;;;;;;5077262;28;20078;-84
2024/02/05 08:33:22;;;;;;;18.70;3.90;;;8.80;99.90;;;;;;5077490;28;20115;-84
2024/02/05 08:35:48;;;;;;;12.40;3.50;;;8.80;99.90;;;;;;5076394;28;20044;-86
2024/02/05 08:38:13;;;;;;;10.18;3.35;;;8.80;99.90;;;;;;5075311;28;20029;-88
2024/02/05 08:40:40;;;;;;;8.20;3.55;;;8.80;99.90;;;;;;5076736;28;20328;-86
2024/02/05 08:43:06;;;;;;;11.95;2.75;;;8.80;99.90;;;;;;5078225;28;20301;-87
2024/02/05 08:45:31;;;;;;;12.85;3.13;;;8.90;99.90;;;;;;5078365;28;20066;-85
2024/02/05 08:47:59;;;;;;;13.35;4.15;;;8.90;99.90;;;;;;5074871;28;20035;-84
2024/02/05 08:50:31;;;;;;;13.68;3.53;;;9.00;99.90;;;;;;5072511;28;20485;-87
2024/02/05 08:52:56;;;;;;;9.57;3.33;;;8.80;99.90;;;;;;5067185;28;20036;-87
2024/02/05 08:55:22;;;;;;;13.98;3.47;;;9.50;99.90;;;;;;5087202;28;20042;-86
2024/02/05 08:57:50;;;;;;;9.57;3.50;;;8.90;99.90;;;;;;5069755;28;20017;-85
2024/02/05 09:00:17;;;;;;;10.93;3.65;;;9.00;99.90;;;;;;5077695;28;20436;-87
2024/02/05 09:02:43;;;;;;;15.35;3.55;;;8.90;99.90;;;;;;5075778;28;20499;-83
2024/02/05 09:05:09;;;;;;;10.38;3.65;;;9.10;99.90;;;;;;5085595;28;20040;-87
2024/02/05 09:07:35;;;;;;;12.13;3.17;;;9.30;99.90;;;;;;5072979;28;20021;-88
2024/02/05 09:10:01;;;;;;;17.33;3.50;;;9.20;99.90;;;;;;5076034;28;20476;-83
2024/02/05 09:12:26;;;;;;;12.80;3.00;;;10.10;99.90;;;;;;5077122;28;20029;-84
2024/02/05 09:14:54;;;;;;;11.48;3.30;;;9.10;99.90;;;;;;5081598;28;20155;-84
2024/02/05 09:17:19;;;;;;;15.20;3.55;;;9.10;99.90;;;;;;5064011;28;20508;-87
2024/02/05 09:19:46;;;;;;;13.35;3.60;;;9.10;99.90;;;;;;5078957;28;20021;-89
2024/02/05 09:22:12;;;;;;;14.63;3.88;;;9.10;99.90;;;;;;5065656;28;20391;-86
2024/02/05 09:24:38;;;;;;;13.13;3.33;;;9.10;99.90;;;;;;5068397;28;20032;-88
2024/02/05 09:27:05;;;;;;;12.38;4.07;;;9.10;99.90;;;;;;5066891;28;20375;-86
2024/02/05 09:29:31;;;;;;;14.48;4.10;;;9.80;99.90;;;;;;5078588;28;20029;-86
2024/02/05 09:31:57;;;;;;;11.38;4.60;;;10.30;99.90;;;;;;5091099;28;20029;-86
2024/02/05 09:34:23;;;;;;;12.50;3.72;;;9.10;99.90;;;;;;5076170;28;20272;-83
2024/02/05 09:36:49;;;;;;;13.10;3.63;;;9.20;99.90;;;;;;5066884;28;20329;-87
2024/02/05 09:39:15;;;;;;;13.55;3.38;;;9.20;99.90;;;;;;5065898;28;20029;-84
2024/02/05 09:41:42;;;;;;;10.82;3.03;;;9.50;99.90;;;;;;5082332;28;20052;-86
2024/02/05 09:44:08;;;;;;;17.52;3.83;;;9.40;99.90;;;;;;5084123;28;20024;-87
2024/02/05 09:46:34;;;;;;;6.45;3.42;;;9.30;99.90;;;;;;5091614;28;20046;-86
2024/02/05 09:49:03;;;;;;;12.52;3.20;;;9.90;99.90;;;;;;5080913;28;20084;-88
2024/02/05 09:51:31;;;;;;;10.90;3.05;;;9.20;99.90;;;;;;5079047;28;20031;-85
2024/02/05 09:53:59;;;;;;;8.85;2.92;;;9.20;99.90;;;;;;5071372;28;20472;-87
2024/02/05 09:56:28;;;;;;;13.27;2.95;;;9.40;99.90;;;;;;5072120;28;20024;-87
2024/02/05 09:58:54;;;;;;;9.63;2.90;;;9.60;99.90;;;;;;5082443;28;20563;-87
2024/02/05 10:01:20;;;;;;;11.60;3.42;;;9.70;99.90;;;;;;5076961;28;20226;-86
2024/02/05 10:03:47;;;;;;;18.92;4.25;;;9.40;99.90;;;;;;5078122;28;20028;-86
2024/02/05 10:06:17;;;;;;;11.75;3.35;;;9.50;99.90;;;;;;5083177;28;20485;-87
2024/02/05 10:08:45;;;;;;;10.30;3.33;;;9.40;99.90;;;;;;5082411;28;20020;-86
2024/02/05 10:11:13;;;;;;;11.45;2.90;;;9.90;99.90;;;;;;5075760;28;20024;-86
2024/02/05 10:13:40;;;;;;;11.35;3.40;;;9.40;99.90;;;;;;5073892;28;20060;-86
2024/02/05 10:16:06;;;;;;;9.45;2.72;;;9.50;99.90;;;;;;5072577;28;20024;-85
2024/02/05 10:18:32;;;;;;;9.20;2.70;;;9.50;99.90;;;;;;5081366;28;20013;-85
2024/02/05 10:21:00;;;;;;;11.50;2.92;;;9.50;99.90;;;;;;5083238;28;20092;-86
2024/02/05 10:23:26;;;;;;;12.82;2.97;;;10.80;99.90;;;;;;5078119;28;20082;-84
2024/02/05 10:25:56;;;;;;;18.45;2.88;;;9.60;99.90;;;;;;5072596;28;20107;-86
2024/02/05 10:28:22;;;;;;;12.23;3.38;;;9.70;99.90;;;;;;5080991;28;20024;-87
2024/02/05 10:30:48;;;;;;;12.75;3.35;;;9.70;99.90;;;;;;5078514;28;20115;-87
2024/02/05 10:33:16;;;;;;;12.93;2.92;;;9.60;99.90;;;;;;5077006;28;20024;-84
2024/02/05 10:35:42;;;;;;;13.82;3.90;;;9.60;99.90;;;;;;5088747;28;20043;-86
2024/02/05 10:38:09;;;;;;;10.85;3.92;;;10.10;99.90;;;;;;5080166;28;20021;-85
2024/02/05 10:40:37;;;;;;;14.32;3.50;;;8.30;99.90;;;;;;5079368;28;20033;-86
2024/02/05 10:43:08;;;;;;;14.95;4.22;;;9.50;99.90;;;;;;5075754;28;20029;-89
2024/02/05 10:45:38;;;;;;;9.93;3.20;;;9.50;99.90;;;;;;5077353;28;20039;-83
2024/02/05 10:48:05;;;;;;;15.07;3.22;;;9.50;99.90;;;;;;5076027;28;20051;-86
2024/02/05 10:50:31;;;;;;;12.77;3.17;;;9.50;99.90;;;;;;5095013;28;20376;-83
2024/02/05 10:52:57;;;;;;;14.93;4.13;;;9.30;99.90;;;;;;5068447;28;20115;-82
2024/02/05 10:55:24;;;;;;;11.00;2.80;;;9.60;99.90;;;;;;5076126;28;20078;-83
2024/02/05 10:57:53;;;;;;;12.27;3.15;;;9.80;99.90;;;;;;5078059;28;20033;-86
2024/02/05 11:00:18;;;;;;;19.77;4.82;;;9.40;99.90;;;;;;5083864;28;20025;-87
2024/02/05 11:02:54;;;;;;;9.32;3.10;;;9.40;99.90;;;;;;5071903;28;20130;-85
2024/02/05 11:05:26;;;;;;;10.23;2.90;;;11.20;99.90;;;;;;5075846;28;20048;-87
2024/02/05 11:08:14;;;;;;;14.23;2.95;;;9.30;99.90;;;;;;5065543;28;20032;-87
2024/02/05 11:10:57;;;;;;;;;;;;;;;;;;;;;
2024/02/05 11:13:57;;;;;;;;;;;;;;;;;;;;;
2024/02/05 11:16:40;;;;;;;9.50;3.13;;;9.50;99.90;;;;;;5078792;28;20044;-89
2024/02/05 11:19:36;;;;;;;;;;;;;;;;;;;;;
2024/02/05 11:22:07;;;;;;;10.93;3.22;;;9.40;99.90;;;;;;5046950;28;20113;-86
2024/02/05 11:24:46;;;;;;;;;;;;;;;;;;;;;
2024/02/05 11:27:24;;;;;;;12.88;3.40;;;11.40;99.90;;;;;;5083074;28;20559;-86
2024/02/05 11:29:53;;;;;;;13.00;3.08;;;10.30;99.90;;;;;;5068587;28;20103;-88
2024/02/05 11:32:31;;;;;;;16.00;3.70;;;9.50;99.90;;;;;;5092444;28;20024;-83
2024/02/05 11:34:57;;;;;;;13.75;3.55;;;9.40;99.90;;;;;;5083161;28;20040;-82
2024/02/05 11:37:28;;;;;;;9.27;2.83;;;9.50;99.90;;;;;;5081762;28;20016;-86
2024/02/05 11:40:06;;;;;;;;;;;;;;;;;;;;;
2024/02/05 11:43:18;;;;;;;;;;;;;;;;;;;;;
2024/02/05 11:45:55;;;;;;;12.60;2.33;;;9.40;99.90;;;;;;5019761;28;20130;-88
2024/02/05 11:48:31;;;;;;;;;;;;;;;;;;;;;
2024/02/05 11:51:01;;;;;;;10.10;3.30;;;9.60;99.90;;;;;;5082508;28;20610;-87
2024/02/05 11:53:31;;;;;;;12.68;2.65;;;9.60;99.90;;;;;;5118831;28;20049;-86
2024/02/05 11:55:59;;;;;;;11.07;2.90;;;9.70;99.90;;;;;;5076216;28;20052;-85
2024/02/05 11:58:29;;;;;;;11.65;2.90;;;9.70;99.90;;;;;;5099507;28;20047;-87
2024/02/05 12:00:55;;;;;;;13.52;3.10;;;9.20;99.90;;;;;;5082093;28;20020;-86
2024/02/05 12:03:21;;;;;;;10.65;2.53;;;9.20;99.90;;;;;;5077394;28;20108;-88
2024/02/05 12:05:51;;;;;;;11.35;2.92;;;9.90;99.90;;;;;;5085776;28;20085;-83
2024/02/05 12:08:20;;;;;;;12.45;3.30;;;9.80;99.90;;;;;;5086061;28;20028;-85
2024/02/05 12:11:11;;;;;;;10.45;2.78;;;9.80;99.90;;;;;;5082208;28;20508;-87
2024/02/05 12:13:42;;;;;;;7.78;2.60;;;9.80;99.90;;;;;;5063081;28;20123;-84
2024/02/05 12:16:31;;;;;;;18.52;2.70;;;9.80;99.90;;;;;;5088921;28;20048;-87
2024/02/05 12:19:10;;;;;;;;;;;;;;;;;;;;;
2024/02/05 12:21:36;;;;;;;6.47;3.25;;;9.80;99.90;;;;;;5080498;28;20451;-87
2024/02/05 12:24:16;;;;;;;;;;;;;;;;;;;;;
2024/02/05 12:26:48;;;;;;;8.98;2.80;;;9.70;99.90;;;;;;5075896;28;20100;-86
2024/02/05 12:29:33;;;;;;;12.63;3.05;;;8.90;99.90;;;;;;5080096;28;20017;-88
2024/02/05 12:32:06;;;;;;;13.60;3.33;;;9.90;99.90;;;;;;5084621;28;20028;-87
2024/02/05 12:34:32;;;;;;;10.93;3.50;;;9.70;99.90;;;;;;5088084;28;20562;-86
2024/02/05 12:37:04;;;;;;;10.85;2.40;;;9.70;99.90;;;;;;5085445;28;20063;-87
2024/02/05 12:39:30;;;;;;;13.18;3.45;;;9.80;99.90;;;;;;5090657;28;20389;-86
2024/02/05 12:42:26;;;;;;;12.75;3.45;;;8.50;99.90;;;;;;5081061;28;20024;-86
2024/02/05 12:44:53;;;;;;;9.93;3.65;;;9.80;99.90;;;;;;5103096;28;20385;-85
2024/02/05 12:47:22;;;;;;;9.98;2.30;;;8.60;99.90;;;;;;5075581;28;20013;-82
2024/02/05 12:49:49;;;;;;;12.30;2.83;;;9.80;99.90;;;;;;5073949;28;20025;-86
2024/02/05 12:52:15;;;;;;;13.55;2.30;;;9.80;99.90;;;;;;5090540;28;20033;-85
2024/02/05 12:54:41;;;;;;;8.18;2.05;;;9.90;99.90;;;;;;5090788;28;20058;-85
2024/02/05 12:57:19;;;;;;;14.07;2.58;;;10.00;99.90;;;;;;5085280;28;20017;-85
2024/02/05 12:59:50;;;;;;;12.20;2.67;;;10.10;99.90;;;;;;5089786;28;20028;-83
2024/02/05 13:02:34;;;;;;;16.15;3.17;;;9.90;99.90;;;;;;5080392;28;20562;-85
2024/02/05 13:05:13;;;;;;;;;;;;;;;;;;;;;
2024/02/05 13:07:47;;;;;;;11.80;2.75;;;9.80;99.90;;;;;;5086401;28;20055;-80
2024/02/05 13:10:27;;;;;;;;;;;;;;;;;;;;;
2024/02/05 13:12:58;;;;;;;14.20;3.88;;;10.20;99.90;;;;;;5074632;28;20045;-82
2024/02/05 13:15:25;;;;;;;16.13;2.70;;;9.90;99.90;;;;;;5097140;28;20024;-82
2024/02/05 13:17:52;;;;;;;12.93;2.97;;;10.30;99.90;;;;;;5109311;28;20023;-87
2024/02/05 13:20:18;;;;;;;13.05;3.05;;;10.20;99.90;;;;;;5094127;28;20013;-86
2024/02/05 13:22:56;;;;;;;;;;;;;;;;;;;;;
2024/02/05 13:25:22;;;;;;;10.82;3.50;;;9.60;99.90;;;;;;5075484;28;20120;-86
2024/02/05 13:27:59;;;;;;;;;;;;;;;;;;;;;